createdAt,value
2024-05-09T00:00:39.088Z,12.72
2024-05-09T00:03:07.907Z,12.76
2024-05-09T00:05:35.665Z,12.75
2024-05-09T00:08:02.818Z,12.74
2024-05-09T00:10:35.974Z,12.76
2024-05-09T00:13:06.439Z,12.73
2024-05-09T00:15:34.040Z,12.72
2024-05-09T00:18:01.835Z,12.71
2024-05-09T00:20:37.292Z,12.65
2024-05-09T00:23:08.434Z,12.64
2024-05-09T00:25:35.747Z,12.67
2024-05-09T00:28:03.003Z,12.61
2024-05-09T00:30:34.532Z,12.52
2024-05-09T00:33:05.388Z,12.44
2024-05-09T00:35:33.408Z,12.44
2024-05-09T00:38:00.654Z,12.45
2024-05-09T00:40:38.726Z,12.48
2024-05-09T00:43:08.508Z,12.47
2024-05-09T00:45:35.590Z,12.47
2024-05-09T00:48:06.126Z,12.42
2024-05-09T00:50:36.953Z,12.37
2024-05-09T00:53:09.902Z,12.25
2024-05-09T00:55:37.996Z,12.18
2024-05-09T00:58:06.428Z,12.19
2024-05-09T01:00:39.005Z,12.17
2024-05-09T01:03:12.609Z,12.14
2024-05-09T01:05:42.404Z,12.16
2024-05-09T01:08:10.905Z,12.16
2024-05-09T01:10:38.488Z,12.12
2024-05-09T01:13:07.172Z,12.08
2024-05-09T01:15:35.614Z,12.05
2024-05-09T01:18:07.155Z,12.09
2024-05-09T01:20:41.151Z,12.07
2024-05-09T01:23:11.149Z,12.08
2024-05-09T01:25:38.304Z,12.07
2024-05-09T01:28:05.780Z,11.96
2024-05-09T01:30:35.677Z,11.90
2024-05-09T01:33:10.158Z,11.86
2024-05-09T01:35:40.647Z,11.81
2024-05-09T01:38:08.396Z,11.78
2024-05-09T01:40:38.736Z,11.75
2024-05-09T01:43:11.656Z,11.69
2024-05-09T01:45:40.256Z,11.60
2024-05-09T01:48:08.478Z,11.46
2024-05-09T01:50:39.820Z,11.41
2024-05-09T01:53:10.886Z,11.34
2024-05-09T01:55:37.964Z,11.32
2024-05-09T01:58:04.996Z,11.41
2024-05-09T02:00:38.829Z,11.42
2024-05-09T02:03:12.286Z,11.41
2024-05-09T02:05:42.793Z,11.41
2024-05-09T02:08:14.882Z,11.47
2024-05-09T02:10:42.124Z,11.56
2024-05-09T02:13:09.345Z,11.59
2024-05-09T02:15:36.159Z,11.58
2024-05-09T02:18:03.211Z,11.56
2024-05-09T02:20:35.882Z,11.53
2024-05-09T02:23:05.904Z,11.51
2024-05-09T02:25:33.204Z,11.51
2024-05-09T02:28:00.146Z,11.47
2024-05-09T02:30:37.713Z,11.44
2024-05-09T02:33:09.264Z,11.35
2024-05-09T02:35:37.217Z,11.31
2024-05-09T02:38:04.412Z,11.22
2024-05-09T02:40:37.500Z,11.19
2024-05-09T02:43:07.204Z,11.15
2024-05-09T02:45:34.337Z,11.18
2024-05-09T02:48:02.085Z,11.13
2024-05-09T02:50:34.781Z,11.14
2024-05-09T02:53:09.530Z,11.10
2024-05-09T02:55:40.845Z,11.09
2024-05-09T02:58:08.223Z,11.09
2024-05-09T03:00:39.659Z,11.08
2024-05-09T03:03:11.420Z,11.12
2024-05-09T03:05:40.906Z,11.08
2024-05-09T03:08:08.080Z,10.97
2024-05-09T03:10:37.252Z,10.87
2024-05-09T03:13:11.573Z,10.80
2024-05-09T03:15:38.569Z,10.73
2024-05-09T03:18:06.311Z,10.54
2024-05-09T03:20:35.665Z,10.48
2024-05-09T03:23:04.994Z,10.59
2024-05-09T03:25:32.361Z,10.68
2024-05-09T03:27:59.485Z,10.75
2024-05-09T03:30:36.142Z,10.75
2024-05-09T03:33:18.785Z,10.67
2024-05-09T03:35:47.630Z,10.60
2024-05-09T03:38:14.895Z,10.57
2024-05-09T03:40:49.531Z,10.49
2024-05-09T03:43:17.722Z,10.47
2024-05-09T03:45:45.682Z,10.36
2024-05-09T03:48:12.905Z,10.36
2024-05-09T03:50:40.284Z,10.36
2024-05-09T03:53:10.476Z,10.40
2024-05-09T03:55:37.432Z,10.49
2024-05-09T03:58:05.054Z,10.51
2024-05-09T04:00:37.879Z,10.48
2024-05-09T04:03:09.434Z,10.54
2024-05-09T04:05:42.672Z,10.58
2024-05-09T04:08:12.766Z,10.59
2024-05-09T04:10:40.308Z,10.62
2024-05-09T04:13:07.201Z,10.65
2024-05-09T04:15:33.949Z,10.66
2024-05-09T04:18:01.714Z,10.71
2024-05-09T04:20:37.083Z,10.70
2024-05-09T04:23:08.749Z,10.78
2024-05-09T04:25:37.684Z,10.82
2024-05-09T04:28:05.435Z,10.88
2024-05-09T04:30:38.132Z,10.90
2024-05-09T04:33:10.136Z,10.93
2024-05-09T04:35:39.152Z,10.94
2024-05-09T04:38:06.307Z,10.92
2024-05-09T04:40:36.047Z,10.95
2024-05-09T04:43:05.603Z,10.97
2024-05-09T04:45:32.658Z,10.95
2024-05-09T04:47:59.787Z,10.84
2024-05-09T04:50:35.521Z,10.80
2024-05-09T04:53:06.576Z,10.87
2024-05-09T04:55:36.021Z,10.84
2024-05-09T04:58:02.866Z,10.89
2024-05-09T05:00:35.920Z,10.94
2024-05-09T05:03:12.798Z,11.01
2024-05-09T05:05:42.293Z,11.07
2024-05-09T05:08:17.310Z,11.15
2024-05-09T05:10:45.601Z,11.19
2024-05-09T05:13:16.467Z,11.27
2024-05-09T05:15:44.070Z,11.35
2024-05-09T05:18:11.073Z,11.43
2024-05-09T05:20:38.087Z,11.46
2024-05-09T05:23:08.526Z,11.47
2024-05-09T05:25:35.378Z,11.48
2024-05-09T05:28:02.401Z,11.57
2024-05-09T05:30:34.303Z,11.64
2024-05-09T05:33:02.084Z,11.68
2024-05-09T05:35:29.115Z,11.75
2024-05-09T05:37:56.074Z,11.82
2024-05-09T05:40:32.071Z,11.88
2024-05-09T05:43:08.381Z,11.93
2024-05-09T05:45:35.291Z,11.92
2024-05-09T05:48:04.818Z,11.89
2024-05-09T05:50:36.136Z,11.90
2024-05-09T05:53:08.815Z,11.94
2024-05-09T05:55:40.201Z,11.97
2024-05-09T05:58:10.620Z,11.97
2024-05-09T06:00:39.779Z,12.05
2024-05-09T06:03:09.335Z,12.12
2024-05-09T06:05:39.290Z,12.11
2024-05-09T06:08:06.635Z,12.10
2024-05-09T06:10:38.436Z,12.16
2024-05-09T06:13:10.558Z,12.22
2024-05-09T06:15:37.511Z,12.33
2024-05-09T06:18:10.203Z,12.39
2024-05-09T06:20:39.850Z,12.46
2024-05-09T06:23:08.082Z,12.48
2024-05-09T06:25:35.934Z,12.53
2024-05-09T06:28:03.047Z,12.61
2024-05-09T06:30:37.476Z,12.69
2024-05-09T06:33:08.822Z,12.78
2024-05-09T06:35:36.643Z,12.81
2024-05-09T06:38:03.842Z,12.85
2024-05-09T06:40:37.255Z,12.91
2024-05-09T06:43:18.260Z,13.00
2024-05-09T06:45:52.351Z,13.09
2024-05-09T06:48:19.790Z,13.11
2024-05-09T06:50:47.314Z,13.21
2024-05-09T06:53:15.192Z,13.21
2024-05-09T06:55:42.535Z,13.32
2024-05-09T06:58:09.719Z,13.42
2024-05-09T07:00:39.802Z,13.52
2024-05-09T07:03:13.288Z,13.61
2024-05-09T07:05:42.421Z,13.69
2024-05-09T07:08:09.536Z,13.80
2024-05-09T07:10:37.092Z,13.84
2024-05-09T07:13:10.770Z,13.98
2024-05-09T07:15:38.053Z,14.10
2024-05-09T07:18:13.059Z,14.23
2024-05-09T07:20:40.456Z,14.31
2024-05-09T07:23:11.636Z,14.42
2024-05-09T07:25:40.013Z,14.53
2024-05-09T07:28:20.811Z,14.61
2024-05-09T07:30:48.111Z,14.71
2024-05-09T07:33:23.358Z,14.79
2024-05-09T07:35:51.574Z,14.86
2024-05-09T07:38:18.880Z,14.95
2024-05-09T07:40:46.894Z,15.03
2024-05-09T07:43:16.491Z,15.09
2024-05-09T07:45:52.499Z,15.11
2024-05-09T07:52:39.376Z,15.30
2024-05-09T07:53:48.298Z,15.37
2024-05-09T07:56:19.851Z,15.44
2024-05-09T07:58:50.111Z,15.53
2024-05-09T08:01:17.149Z,15.60
2024-05-09T08:03:44.922Z,15.69
2024-05-09T08:06:11.909Z,15.81
2024-05-09T08:08:38.694Z,15.87
2024-05-09T08:11:06.509Z,15.97
2024-05-09T08:13:34.184Z,16.20
2024-05-09T08:16:01.641Z,16.29
2024-05-09T08:18:29.612Z,16.30
2024-05-09T08:20:58.884Z,16.44
2024-05-09T08:23:25.838Z,16.64
2024-05-09T08:25:55.444Z,16.71
2024-05-09T08:28:22.279Z,16.78
2024-05-09T08:30:49.613Z,16.89
2024-05-09T08:33:16.704Z,17.13
2024-05-09T08:35:43.690Z,17.29
2024-05-09T08:38:10.693Z,17.49
2024-05-09T08:40:38.387Z,17.65
2024-05-09T08:43:11.435Z,17.80
2024-05-09T08:45:43.961Z,17.94
2024-05-09T08:48:13.940Z,18.14
2024-05-09T08:50:41.781Z,18.38
2024-05-09T08:53:09.212Z,18.52
2024-05-09T08:55:40.511Z,18.65
2024-05-09T08:58:20.913Z,18.87
2024-05-09T09:00:48.661Z,19.11
2024-05-09T09:03:19.633Z,19.22
2024-05-09T09:06:02.106Z,19.37
2024-05-09T09:08:29.038Z,19.46
2024-05-09T09:10:58.030Z,19.66
2024-05-09T09:13:25.967Z,20.04
2024-05-09T09:18:29.294Z,20.60
2024-05-09T09:20:56.361Z,20.70
2024-05-09T09:23:23.195Z,20.99
2024-05-09T09:25:50.460Z,20.70
2024-05-09T09:28:17.653Z,20.91
2024-05-09T09:30:45.729Z,21.27
2024-05-09T09:33:12.610Z,21.66
2024-05-09T09:35:42.151Z,22.06
2024-05-09T09:38:10.263Z,21.99
2024-05-09T09:40:42.878Z,22.13
2024-05-09T09:43:21.944Z,22.61
2024-05-09T09:45:51.317Z,22.29
2024-05-09T09:48:19.956Z,22.85
2024-05-09T09:50:48.442Z,23.06
2024-05-09T09:53:16.372Z,23.61
2024-05-09T09:55:43.803Z,24.32
2024-05-09T09:58:13.478Z,24.44
2024-05-09T10:00:41.829Z,24.65
2024-05-09T10:03:09.251Z,23.85
2024-05-09T10:05:36.923Z,23.54
2024-05-09T10:08:07.350Z,24.50
2024-05-09T10:10:35.655Z,25.08
2024-05-09T10:13:09.012Z,25.37
2024-05-09T10:15:52.639Z,25.88
2024-05-09T10:18:25.274Z,26.53
2024-05-09T10:20:55.890Z,27.05
2024-05-09T10:23:30.613Z,26.95
2024-05-09T10:26:05.320Z,27.21
2024-05-09T10:28:37.407Z,27.09
2024-05-09T10:31:11.092Z,26.93
2024-05-09T10:33:41.803Z,27.71
2024-05-09T10:36:26.130Z,28.64
2024-05-09T10:38:54.351Z,29.03
2024-05-09T10:41:22.759Z,28.71
2024-05-09T10:43:50.441Z,27.34
2024-05-09T10:46:20.378Z,27.09
2024-05-09T10:48:49.246Z,27.24
2024-05-09T10:51:19.108Z,28.26
2024-05-09T10:53:47.793Z,29.14
2024-05-09T10:56:14.972Z,28.91
2024-05-09T10:58:42.077Z,28.97
2024-05-09T11:01:09.810Z,29.69
2024-05-09T11:03:37.893Z,30.36
2024-05-09T11:06:06.232Z,30.96
2024-05-09T11:08:34.191Z,31.85
2024-05-09T11:11:02.880Z,31.58
2024-05-09T11:13:31.552Z,31.35
2024-05-09T11:15:59.980Z,31.71
2024-05-09T11:18:30.778Z,31.68
2024-05-09T11:21:00.723Z,32.12
2024-05-09T11:23:30.106Z,31.47
2024-05-09T11:25:58.524Z,29.52
2024-05-09T11:28:27.107Z,29.53
2024-05-09T11:31:08.572Z,30.12
2024-05-09T11:33:48.485Z,30.70
2024-05-09T11:36:15.828Z,29.85
2024-05-09T11:38:42.807Z,28.98
2024-05-09T11:41:17.167Z,28.35
2024-05-09T11:43:44.444Z,28.07
2024-05-09T11:46:11.399Z,27.57
2024-05-09T11:48:39.714Z,27.08
2024-05-09T11:51:06.705Z,26.78
2024-05-09T11:53:33.470Z,26.60
2024-05-09T11:56:00.398Z,26.26
2024-05-09T11:58:28.832Z,25.86
2024-05-09T12:00:57.097Z,25.57
2024-05-09T12:03:24.197Z,25.54
2024-05-09T12:05:51.281Z,25.56
2024-05-09T12:08:18.519Z,25.53
2024-05-09T12:10:46.033Z,25.39
2024-05-09T12:13:13.029Z,25.27
2024-05-09T12:15:39.961Z,24.78
2024-05-09T12:18:07.919Z,24.68
2024-05-09T12:20:38.467Z,24.78
2024-05-09T12:23:08.412Z,24.85
2024-05-09T12:25:37.053Z,24.54
2024-05-09T12:28:04.456Z,24.31
2024-05-09T12:30:36.836Z,24.50
2024-05-09T12:33:12.921Z,24.37
2024-05-09T12:35:43.506Z,24.31
2024-05-09T12:38:13.803Z,24.22
2024-05-09T12:40:40.667Z,24.22
2024-05-09T12:43:08.840Z,24.29
2024-05-09T12:45:37.055Z,24.22
2024-05-09T12:48:07.256Z,24.24
2024-05-09T12:50:34.920Z,24.33
2024-05-09T12:53:03.626Z,24.40
2024-05-09T12:55:37.719Z,24.41
2024-05-09T12:58:12.133Z,24.34
2024-05-09T13:00:39.898Z,24.30
2024-05-09T13:03:07.184Z,24.44
2024-05-09T13:05:34.227Z,24.48
2024-05-09T13:08:01.951Z,24.49
2024-05-09T13:10:32.499Z,24.56
2024-05-09T13:13:01.806Z,24.61
2024-05-09T13:15:34.524Z,24.72
2024-05-09T13:18:03.232Z,24.62
2024-05-09T13:20:34.169Z,24.74
2024-05-09T13:23:08.006Z,25.03
2024-05-09T13:25:36.688Z,25.28
2024-05-09T13:28:04.604Z,25.09
2024-05-09T13:30:39.228Z,25.02
2024-05-09T13:33:10.674Z,25.40
2024-05-09T13:35:40.155Z,25.77
2024-05-09T13:38:07.583Z,26.05
2024-05-09T13:40:36.267Z,26.23
2024-05-09T13:43:04.920Z,26.46
2024-05-09T13:45:32.931Z,26.00
2024-05-09T13:48:00.237Z,26.00
2024-05-09T14:03:29.849Z,29.62
2024-05-09T14:05:57.113Z,30.61
2024-05-09T14:08:24.230Z,31.16
2024-05-09T14:10:52.172Z,31.47
2024-05-09T14:13:19.938Z,32.56
2024-05-09T14:15:47.043Z,33.78
2024-05-09T14:18:14.731Z,34.25
2024-05-09T14:20:42.509Z,34.50
2024-05-09T14:23:09.744Z,34.76
2024-05-09T14:25:39.763Z,35.37
2024-05-09T14:28:09.212Z,35.95
2024-05-09T14:30:38.069Z,36.80
2024-05-09T14:33:07.267Z,36.64
2024-05-09T14:35:35.243Z,37.41
2024-05-09T14:38:02.774Z,37.40
2024-05-09T14:40:40.139Z,37.67
2024-05-09T14:43:14.788Z,38.14
2024-05-09T14:45:43.117Z,38.88
2024-05-09T14:48:11.280Z,39.04
2024-05-09T14:50:39.860Z,39.23
2024-05-09T14:53:09.510Z,39.48
2024-05-09T14:55:37.820Z,39.56
2024-05-09T14:58:07.039Z,39.83
2024-05-09T15:00:38.385Z,39.95
2024-05-09T15:03:06.885Z,40.19
2024-05-09T15:05:33.913Z,40.37
2024-05-09T15:08:00.919Z,39.93
2024-05-09T15:10:37.904Z,39.90
2024-05-09T15:13:10.362Z,40.29
2024-05-09T15:15:41.156Z,39.57
2024-05-09T15:18:12.532Z,39.53
2024-05-09T15:20:42.476Z,39.82
2024-05-09T15:23:09.580Z,39.83
2024-05-09T15:25:37.042Z,40.57
2024-05-09T15:28:07.164Z,40.38
2024-05-09T15:30:34.960Z,40.64
2024-05-09T15:33:05.357Z,40.11
2024-05-09T15:35:33.592Z,39.74
2024-05-09T15:38:02.448Z,40.06
2024-05-09T15:40:36.116Z,40.12
2024-05-09T15:43:08.156Z,39.79
2024-05-09T15:45:35.778Z,39.01
2024-05-09T15:48:03.251Z,39.28
2024-05-09T15:50:37.157Z,39.33
2024-05-09T15:53:08.692Z,39.34
2024-05-09T15:55:36.524Z,39.25
2024-05-09T15:58:04.558Z,39.01
2024-05-09T16:03:04.925Z,35.38
2024-05-09T16:05:34.214Z,32.75
2024-05-09T16:08:03.191Z,33.06
2024-05-09T16:10:33.111Z,33.18
2024-05-09T16:13:02.275Z,33.00
2024-05-09T16:15:29.950Z,32.38
2024-05-09T16:18:00.257Z,31.58
2024-05-09T16:20:35.107Z,30.30
2024-05-09T16:23:07.474Z,29.47
2024-05-09T16:25:34.423Z,28.73
2024-05-09T16:28:01.773Z,28.47
2024-05-09T16:30:34.558Z,28.16
2024-05-09T16:33:05.389Z,27.93
2024-05-09T16:35:32.975Z,27.74
2024-05-09T16:38:02.630Z,27.39
2024-05-09T16:40:37.328Z,27.02
2024-05-09T16:43:11.589Z,26.51
2024-05-09T16:45:46.021Z,26.24
2024-05-09T16:48:14.369Z,26.06
2024-05-09T16:50:41.367Z,25.56
2024-05-09T16:53:08.463Z,25.44
2024-05-09T16:55:36.281Z,25.35
2024-05-09T16:58:04.271Z,25.20
2024-05-09T17:00:39.651Z,25.10
2024-05-09T17:03:12.610Z,24.96
2024-05-09T17:05:40.952Z,24.94
2024-05-09T17:08:20.155Z,24.78
2024-05-09T17:10:58.165Z,24.98
2024-05-09T17:13:38.068Z,26.04
2024-05-09T17:16:18.942Z,26.95
2024-05-09T17:18:49.637Z,27.50
2024-05-09T17:21:16.420Z,27.85
2024-05-09T17:23:43.178Z,28.06
2024-05-09T17:26:10.089Z,27.99
2024-05-09T17:28:37.361Z,27.76
2024-05-09T17:31:04.272Z,27.47
2024-05-09T17:33:31.112Z,27.29
2024-05-09T17:35:58.050Z,27.08
2024-05-09T17:38:24.743Z,26.84
2024-05-09T17:40:52.922Z,26.53
2024-05-09T17:43:19.796Z,26.11
2024-05-09T17:45:46.756Z,25.86
2024-05-09T17:48:13.818Z,25.59
2024-05-09T17:50:41.856Z,25.36
2024-05-09T17:53:10.140Z,24.99
2024-05-09T17:55:36.993Z,24.63
2024-05-09T17:58:04.820Z,24.37
2024-05-09T18:00:38.652Z,23.97
2024-05-09T18:03:10.922Z,23.64
2024-05-09T18:05:38.569Z,23.45
2024-05-09T18:08:06.790Z,23.23
2024-05-09T18:10:37.807Z,23.07
2024-05-09T18:13:07.932Z,22.87
2024-05-09T18:15:35.045Z,22.62
2024-05-09T18:18:02.995Z,22.40
2024-05-09T18:20:39.328Z,22.24
2024-05-09T18:23:11.257Z,22.05
2024-05-09T18:25:38.069Z,21.90
2024-05-09T18:28:06.368Z,21.82
2024-05-09T18:30:36.035Z,21.72
2024-05-09T18:33:06.682Z,21.57
2024-05-09T18:35:34.839Z,21.45
2024-05-09T18:38:01.780Z,21.31
2024-05-09T18:40:34.063Z,21.19
2024-05-09T18:43:06.152Z,21.08
2024-05-09T18:45:34.588Z,20.97
2024-05-09T18:48:01.703Z,20.89
2024-05-09T18:50:34.948Z,20.82
2024-05-09T18:53:09.692Z,20.70
2024-05-09T18:55:36.423Z,20.62
2024-05-09T18:58:06.788Z,20.51
2024-05-09T19:00:37.231Z,20.48
2024-05-09T19:03:09.251Z,20.40
2024-05-09T19:05:38.450Z,20.32
2024-05-09T19:08:07.022Z,20.21
2024-05-09T19:10:35.372Z,20.16
2024-05-09T19:13:07.965Z,20.05
2024-05-09T19:15:38.615Z,19.95
2024-05-09T19:18:06.301Z,19.84
2024-05-09T19:20:35.327Z,19.74
2024-05-09T19:23:04.002Z,19.71
2024-05-09T19:25:30.907Z,19.58
2024-05-09T19:27:58.077Z,19.48
2024-05-09T19:30:36.637Z,19.31
2024-05-09T19:33:08.214Z,19.26
2024-05-09T19:35:35.307Z,19.23
2024-05-09T19:38:02.389Z,19.24
2024-05-09T19:40:32.321Z,19.17
2024-05-09T19:43:02.163Z,19.13
2024-05-09T19:45:29.620Z,19.05
2024-05-09T19:47:56.882Z,18.98
2024-05-09T19:50:32.143Z,18.90
2024-05-09T19:53:06.800Z,18.89
2024-05-09T19:55:34.037Z,18.84
2024-05-09T19:58:06.827Z,18.76
2024-05-09T20:00:36.930Z,18.72
2024-05-09T20:03:06.240Z,18.66
2024-05-09T20:05:33.710Z,18.59
2024-05-09T20:08:00.922Z,18.55
2024-05-09T20:10:32.405Z,18.52
2024-05-09T20:13:01.533Z,18.50
2024-05-09T20:15:28.368Z,18.44
2024-05-09T20:17:55.500Z,18.39
2024-05-09T20:22:51.858Z,18.31
2024-05-09T20:25:18.713Z,18.24
2024-05-09T20:27:45.520Z,18.20
2024-05-09T20:30:17.041Z,18.15
2024-05-09T20:32:48.263Z,18.13
2024-05-09T20:35:15.082Z,18.04
2024-05-09T20:37:41.792Z,17.95
2024-05-09T20:40:15.371Z,17.78
2024-05-09T20:42:45.361Z,17.69
2024-05-09T20:45:12.069Z,17.62
2024-05-09T20:47:38.998Z,17.56
2024-05-09T20:50:11.427Z,17.52
2024-05-09T20:52:43.087Z,17.51
2024-05-09T20:55:09.924Z,17.52
2024-05-09T20:57:36.767Z,17.49
2024-05-09T21:00:05.769Z,17.41
2024-05-09T21:02:38.144Z,17.44
2024-05-09T21:05:05.262Z,17.50
2024-05-09T21:07:32.539Z,17.51
2024-05-09T21:09:59.412Z,17.54
2024-05-09T21:12:34.499Z,17.58
2024-05-09T21:15:07.677Z,17.62
2024-05-09T21:17:39.925Z,17.66
2024-05-09T21:20:20.503Z,17.67
2024-05-09T21:23:04.091Z,17.67
2024-05-09T21:25:33.468Z,17.63
2024-05-09T21:28:01.070Z,17.60
2024-05-09T21:30:37.655Z,17.59
2024-05-09T21:33:09.787Z,17.53
2024-05-09T21:35:37.979Z,17.52
2024-05-09T21:38:05.002Z,17.49
2024-05-09T21:40:34.994Z,17.39
2024-05-09T21:43:04.343Z,17.35
2024-05-09T21:45:31.498Z,17.25
2024-05-09T21:47:58.390Z,17.09
2024-05-09T21:50:32.388Z,16.98
2024-05-09T21:53:17.064Z,16.91
2024-05-09T21:55:49.354Z,16.89
2024-05-09T21:58:20.747Z,16.88
2024-05-09T22:00:51.016Z,16.88
2024-05-09T22:03:18.374Z,16.87
2024-05-09T22:05:45.565Z,16.88
2024-05-09T22:08:12.507Z,16.80
2024-05-09T22:10:39.497Z,16.73
2024-05-09T22:13:07.179Z,16.70
2024-05-09T22:15:36.629Z,16.65
2024-05-09T22:18:05.437Z,16.54
2024-05-09T22:20:37.293Z,16.46
2024-05-09T22:23:06.218Z,16.44
2024-05-09T22:25:33.475Z,16.35
2024-05-09T22:28:01.906Z,16.37
2024-05-09T22:30:35.831Z,16.31
2024-05-09T22:33:10.133Z,16.27
2024-05-09T22:35:38.395Z,16.24
2024-05-09T22:38:05.476Z,16.19
2024-05-09T22:40:41.999Z,16.17
2024-05-09T22:43:17.439Z,16.18
2024-05-09T22:45:44.631Z,16.19
2024-05-09T22:48:11.643Z,16.11
2024-05-09T22:50:38.457Z,16.10
2024-05-09T22:53:05.503Z,16.06
2024-05-09T22:55:32.548Z,16.01
2024-05-09T22:57:59.446Z,15.94
2024-05-09T23:00:31.295Z,15.85
2024-05-09T23:03:00.460Z,15.85
2024-05-09T23:05:27.558Z,15.83
2024-05-09T23:07:54.442Z,15.79
2024-05-09T23:10:28.190Z,15.79
2024-05-09T23:13:01.523Z,15.75
2024-05-09T23:15:28.603Z,15.60
2024-05-09T23:17:55.617Z,15.57
2024-05-09T23:20:33.117Z,15.51
2024-05-09T23:23:05.296Z,15.40
2024-05-09T23:25:32.360Z,15.32
2024-05-09T23:27:59.239Z,15.17
2024-05-09T23:30:34.195Z,15.09
2024-05-09T23:33:05.869Z,14.98
2024-05-09T23:35:32.780Z,14.92
2024-05-09T23:37:59.651Z,14.83
2024-05-09T23:40:37.117Z,14.82
2024-05-09T23:43:10.898Z,14.87
2024-05-09T23:45:38.219Z,14.89
2024-05-09T23:48:05.823Z,14.86
2024-05-09T23:50:36.533Z,14.84
2024-05-09T23:53:07.731Z,14.79
2024-05-09T23:55:35.780Z,14.76
2024-05-09T23:58:02.754Z,14.75
